KPYMZYTX

Guest
Details From KPYM - Plymouth Muni
To ZYTX - Taoxian
Flight Number -
Tags Decoded
Created
Modified
Stats Distance 5,766 nm / 10,678 km
Max Altitude 0 ft / 0 m
Waypoints 3
Social Downloads 0
Likes 0
Share VATSIM

Download

Looking for another format? Having issues loading an existing format? Contact us
Advertisement - Login to hide

Notes

Decoded

Route

SSOXS LUCOS SEY

ID Type Via Altitude Latitude Longitude Leg Dist Tot Dist Heading (true) Name
O SSOXS FIX - 0 ft / 0 m 41.90837˚ -70.74066˚ - 0 nm - -
LUCOS FIX - 0 ft / 0 m 41.63813˚ -70.76822˚ 16 nm 16 nm 184° / 184° -
O SEY VOR - 0 ft / 0 m 41.63833˚ 123.48000˚ 5749 nm 5765 nm 349° / 191° SHENYANG VOR-DME

Altitude Profile

Advertisement - Login to hide

Weather


0- 5 10 15 20 25 30 35+ Temperature / ° C

Clouds and Precipitation
Forecast for 2017-12-15 06:00 UTC. Updated 2 hours ago

Ground ~20,000 ft ~40,000 ft Winds

KPYM

Details ICAO KPYM (PYM)
Name Plymouth Muni
Region United States
Timezone America/New_York (UTC-5.0)
Stats Elevation 147 ft / 45 m (AMSL)
Location 41.909054° -70.728393°
Runways 2
Magnetic Variation 14.667° W

METAR

KPYM 150152Z AUTO 28008KT 10SM CLR M06/M17 A2994 RMK AO2 SLP142 T10611167

Decode

TAF

Not found

Departure Runways

ID Width Length Bearing (true) Bearing (mag) Surface Threshold Offset Overrun Length
06 75 ft / 23 m 4,348 ft / 1,325 m 39.45° 54.12° Asphalt 0 ft / 0 m 0 ft / 0 m
15 75 ft / 23 m 3,348 ft / 1,020 m 129.71° 144.38° Asphalt 0 ft / 0 m 0 ft / 0 m
24 75 ft / 23 m 4,348 ft / 1,325 m 219.46° 234.13° Asphalt 0 ft / 0 m 0 ft / 0 m
33 75 ft / 23 m 3,348 ft / 1,020 m 309.71° 324.38° Asphalt 0 ft / 0 m 0 ft / 0 m

ZYTX

Details ICAO ZYTX (SHE)
Name TAOXIAN
Region China
Timezone Asia/Shanghai (UTC+8.0)
Stats Elevation 198 ft / 60 m (AMSL)
Location 41.639840° 123.483425°
Runways 1
Magnetic Variation 9.068° W

METAR

ZYTX 150230Z 33004MPS 290V020 CAVOK M06/M17 Q1031 NOSIG

Decode

TAF

Not found

Destination Runways

ID Width Length Bearing (true) Bearing (mag) Surface Threshold Offset Overrun Length
06 148 ft / 45 m 10,461 ft / 3,189 m 48.62° 57.69° Concrete 0 ft / 0 m 197 ft / 60 m
24 148 ft / 45 m 10,461 ft / 3,189 m 228.64° 237.71° Concrete 0 ft / 0 m 197 ft / 60 m

Approach Navaids

Runway Type Ident Frequency Range Bearing (true) Bearing (mag) Slope Elevation
06 Localiser IPU 110.50 MHz 18 nm / 33 km 51.79° 60.86° - 198 ft / 60 m (AMSL)
06 Glidescope IPU 110.50 MHz 10 nm / 19 km 48.63° 57.70° 3.00° 169 ft / 52 m (AMSL)
24 Localiser IKY 110.30 MHz 18 nm / 33 km 224.66° 233.72° - 198 ft / 60 m (AMSL)
24 Glidescope IKY 110.30 MHz 10 nm / 19 km 228.63° 237.70° 3.00° 198 ft / 60 m (AMSL)